Time;durP1;ratioP1;P1;durP2;ratioP2;P2;SDS_P1;SDS_P2;PMS_P1;PMS_P2;Temp;Humidity;BMP_temperature;BMP_pressure;BME280_temperature;BME280_humidity;BME280_pressure;Samples;Min_cycle;Max_cycle;Signal;HPM_P1;HPM_P2
2022/06/26 00:00:03;;;;;;;5.53;3.55;;;;;;;22.77;55.79;99141.53;5020657;28;20025;-92
2022/06/26 00:02:28;;;;;;;7.80;3.80;;;;;;;22.83;55.47;99149.47;5020795;28;20060;-92
2022/06/26 00:04:54;;;;;;;6.40;3.95;;;;;;;22.78;55.86;99140.34;5020351;28;20095;-94
2022/06/26 00:07:19;;;;;;;6.55;4.03;;;;;;;22.85;56.22;99150.75;5020291;28;20032;-93
2022/06/26 00:09:46;;;;;;;7.00;4.40;;;;;;;22.66;57.10;99125.94;5020773;28;20124;-93
2022/06/26 00:12:11;;;;;;;7.07;4.28;;;;;;;22.79;57.60;99154.91;5036948;28;20067;-94
2022/06/26 00:14:37;;;;;;;6.63;4.50;;;;;;;22.67;58.08;99138.53;5037054;28;20044;-93
2022/06/26 00:17:03;;;;;;;9.20;4.45;;;;;;;22.52;58.18;99140.13;5020612;28;20017;-93
2022/06/26 00:19:28;;;;;;;4.72;4.00;;;;;;;22.47;58.54;99149.41;5021162;28;20032;-93
2022/06/26 00:21:54;;;;;;;7.05;4.47;;;;;;;22.33;58.48;99127.09;5020233;28;20091;-93
2022/06/26 00:24:19;;;;;;;8.48;4.50;;;;;;;22.45;58.82;99159.94;5020162;28;20025;-93
2022/06/26 00:26:45;;;;;;;5.53;4.53;;;;;;;22.40;58.33;99138.25;5020218;28;20033;-94
2022/06/26 00:29:10;;;;;;;10.23;4.72;;;;;;;22.47;58.41;99157.63;5020469;28;20072;-94
2022/06/26 00:31:36;;;;;;;6.13;4.85;;;;;;;22.35;59.00;99158.53;5037133;28;20029;-93
2022/06/26 00:34:02;;;;;;;6.05;4.80;;;;;;;22.24;59.22;99157.44;5019633;28;20025;-93
2022/06/26 00:36:27;;;;;;;7.68;5.70;;;;;;;22.33;59.23;99174.53;5019734;28;20087;-94
2022/06/26 00:38:53;;;;;;;13.00;6.18;;;;;;;22.28;58.75;99168.50;5020134;28;20108;-93
2022/06/26 00:41:19;;;;;;;11.77;6.80;;;;;;;22.16;58.82;99156.44;5019776;28;20021;-93
2022/06/26 00:43:44;;;;;;;10.80;6.30;;;;;;;22.10;59.59;99163.34;5036524;28;20027;-93
2022/06/26 00:46:10;;;;;;;13.02;5.57;;;;;;;21.99;59.38;99143.03;5020228;28;20048;-93
2022/06/26 00:48:35;;;;;;;10.18;6.13;;;;;;;21.99;59.43;99151.25;5022649;28;20065;-92
2022/06/26 00:51:01;;;;;;;9.38;5.72;;;;;;;21.91;59.76;99142.03;5022966;28;20831;-93
2022/06/26 00:53:26;;;;;;;7.38;5.22;;;;;;;21.93;59.62;99158.16;5022915;28;20511;-93
2022/06/26 00:55:52;;;;;;;6.38;4.95;;;;;;;21.94;59.58;99166.03;5022696;28;20028;-94
2022/06/26 00:58:17;;;;;;;12.77;5.35;;;;;;;21.92;59.82;99160.09;5039738;28;20024;-93
2022/06/26 01:00:46;;;;;;;8.95;4.80;;;;;;;21.94;59.56;99151.53;5039914;28;20466;-92
2022/06/26 01:03:11;;;;;;;7.82;5.47;;;;;;;21.98;59.69;99160.66;5022582;28;20024;-93
2022/06/26 01:05:39;;;;;;;7.15;3.95;;;;;;;22.06;59.01;99161.63;5023669;28;20025;-93
2022/06/26 01:08:06;;;;;;;6.60;3.47;;;;;;;22.00;59.09;99161.09;5023854;28;20020;-94
2022/06/26 01:10:31;;;;;;;10.63;3.47;;;;;;;21.88;59.37;99142.75;5039266;28;20279;-93
2022/06/26 01:12:57;;;;;;;7.05;3.70;;;;;;;21.95;58.94;99150.38;5022784;28;20035;-93
2022/06/26 01:15:22;;;;;;;8.30;3.83;;;;;;;21.97;59.73;99164.53;5022866;28;20048;-94
2022/06/26 01:17:48;;;;;;;6.18;3.40;;;;;;;21.98;59.20;99175.16;5023403;28;20021;-92
2022/06/26 01:20:13;;;;;;;8.68;3.80;;;;;;;22.02;59.54;99185.41;5022677;28;20479;-93
2022/06/26 01:22:39;;;;;;;8.75;3.50;;;;;;;21.97;59.37;99175.50;5022093;28;20020;-93
2022/06/26 01:25:05;;;;;;;8.05;3.08;;;;;;;22.02;59.05;99168.94;5022569;28;20024;-92
2022/06/26 01:27:30;;;;;;;7.13;2.67;;;;;;;22.09;58.67;99189.16;5022923;28;20027;-93
2022/06/26 01:29:56;;;;;;;9.73;3.90;;;;;;;22.04;58.76;99178.44;5022674;28;20082;-93
2022/06/26 01:32:21;;;;;;;12.85;3.55;;;;;;;22.08;58.64;99182.09;5022714;28;20031;-93
2022/06/26 01:34:47;;;;;;;10.00;3.40;;;;;;;22.16;59.02;99191.28;5023115;28;20028;-93
2022/06/26 01:37:12;;;;;;;7.95;3.45;;;;;;;22.01;58.91;99184.59;5038923;28;20116;-92
2022/06/26 01:39:38;;;;;;;11.07;3.65;;;;;;;22.00;59.33;99200.28;5022521;28;20029;-93
2022/06/26 01:42:04;;;;;;;7.45;3.40;;;;;;;22.02;59.51;99216.38;5039602;28;20024;-93
2022/06/26 01:44:29;;;;;;;6.05;4.28;;;;;;;21.90;60.06;99210.94;5039324;28;20048;-93
2022/06/26 01:46:55;;;;;;;8.45;3.97;;;;;;;21.76;60.24;99201.16;5022426;28;20061;-93
2022/06/26 01:49:23;;;;;;;9.40;4.50;;;;;;;21.69;60.32;99205.66;5022438;28;20056;-93
2022/06/26 01:51:48;;;;;;;7.57;4.32;;;;;;;21.77;61.17;99229.38;5022576;28;20095;-93
2022/06/26 01:54:14;;;;;;;7.75;4.40;;;;;;;21.70;60.64;99201.75;5022002;28;20024;-94
2022/06/26 01:56:42;;;;;;;9.98;4.20;;;;;;;21.72;60.84;99202.19;5022600;28;20025;-94
2022/06/26 01:59:07;;;;;;;6.25;4.15;;;;;;;21.82;60.23;99209.94;5022101;28;20490;-93
2022/06/26 02:01:33;;;;;;;14.68;4.30;;;;;;;21.92;60.46;99227.84;5021876;28;20051;-93
2022/06/26 02:03:59;;;;;;;8.18;4.00;;;;;;;21.76;60.12;99216.81;5022045;28;20044;-93
2022/06/26 02:06:24;;;;;;;6.70;4.00;;;;;;;21.76;60.43;99220.34;5022339;28;20028;-94
2022/06/26 02:08:50;;;;;;;7.25;3.90;;;;;;;21.79;60.59;99232.56;5022491;28;20409;-93
2022/06/26 02:13:59;;;;;;;7.93;3.72;;;;;;;21.88;60.40;99227.72;5043751;28;20081;-93
2022/06/26 02:16:30;;;;;;;11.82;3.88;;;;;;;21.78;60.21;99225.47;5022410;28;20025;-93
2022/06/26 02:18:57;;;;;;;6.32;3.78;;;;;;;21.83;60.97;99238.13;5039298;28;20017;-92
2022/06/26 02:21:27;;;;;;;9.55;3.88;;;;;;;21.75;61.04;99224.22;5022008;28;20452;-93
2022/06/26 02:23:53;;;;;;;9.18;4.20;;;;;;;21.79;60.78;99232.56;5022707;28;20013;-92
2022/06/26 02:26:19;;;;;;;7.10;3.40;;;;;;;21.90;60.78;99243.84;5021950;28;20094;-94
2022/06/26 02:28:44;;;;;;;7.15;3.65;;;;;;;21.88;60.27;99235.16;5021951;28;20060;-93
2022/06/26 02:31:10;;;;;;;6.28;3.42;;;;;;;21.69;60.88;99213.88;5021802;28;20032;-93
2022/06/26 02:33:36;;;;;;;6.60;3.60;;;;;;;21.73;60.79;99217.50;5021326;28;20020;-94
2022/06/26 02:36:08;;;;;;;7.75;3.85;;;;;;;21.85;60.43;99219.41;5024432;28;20067;-93
2022/06/26 02:38:34;;;;;;;9.15;3.83;;;;;;;21.74;60.62;99219.88;5046407;28;20111;-94
2022/06/26 02:40:59;;;;;;;8.65;3.20;;;;;;;21.84;60.16;99239.75;5026169;28;20020;-95
2022/06/26 02:43:25;;;;;;;9.30;3.40;;;;;;;21.77;60.01;99232.13;5025478;28;20111;-95
2022/06/26 02:45:51;;;;;;;7.03;3.13;;;;;;;21.70;60.31;99229.16;5025676;28;20043;-95
2022/06/26 02:48:17;;;;;;;9.68;3.22;;;;;;;21.88;60.69;99260.63;5025532;28;20486;-96
2022/06/26 02:50:42;;;;;;;8.88;3.35;;;;;;;21.75;61.02;99253.59;5025769;28;20116;-96
2022/06/26 02:53:08;;;;;;;8.57;3.30;;;;;;;21.73;61.11;99247.66;5041936;28;20027;-96
2022/06/26 02:55:34;;;;;;;7.03;3.25;;;;;;;21.73;61.47;99247.66;5025507;28;20051;-96
2022/06/26 02:57:59;;;;;;;8.68;3.40;;;;;;;21.79;61.35;99254.50;5025614;28;20028;-96
2022/06/26 03:00:25;;;;;;;4.72;3.20;;;;;;;21.84;60.67;99247.97;5025586;28;20054;-96
2022/06/26 03:02:51;;;;;;;10.95;3.67;;;;;;;21.79;60.78;99236.09;5025908;28;20077;-93
2022/06/26 03:05:16;;;;;;;6.55;3.53;;;;;;;21.68;61.61;99231.44;5025587;28;20500;-96
2022/06/26 03:07:42;;;;;;;9.02;3.70;;;;;;;21.70;61.76;99248.34;5026409;28;20115;-96
2022/06/26 03:10:08;;;;;;;8.25;3.72;;;;;;;21.64;62.29;99236.00;5025505;28;20115;-95
2022/06/26 03:12:33;;;;;;;7.95;3.53;;;;;;;21.71;61.30;99241.72;5025155;28;20028;-95
2022/06/26 03:14:59;;;;;;;8.27;2.83;;;;;;;21.58;61.22;99238.19;5025070;28;20163;-95
2022/06/26 03:17:25;;;;;;;9.32;3.65;;;;;;;21.58;61.46;99232.72;5025543;28;20509;-96
2022/06/26 03:19:50;;;;;;;9.48;3.13;;;;;;;21.71;60.75;99241.72;5025230;28;20486;-96
2022/06/26 03:22:16;;;;;;;8.77;2.97;;;;;;;21.91;60.17;99245.41;5025138;28;20033;-96
2022/06/26 03:24:41;;;;;;;5.68;2.90;;;;;;;21.91;60.11;99239.94;5025261;28;20024;-96
2022/06/26 03:27:07;;;;;;;6.93;2.90;;;;;;;21.81;60.39;99233.03;5025151;28;20016;-96
2022/06/26 03:29:33;;;;;;;8.57;3.08;;;;;;;21.92;60.36;99253.31;5025941;28;20111;-95
2022/06/26 03:31:58;;;;;;;7.78;3.00;;;;;;;21.90;60.87;99250.13;5024964;28;20024;-96
2022/06/26 03:34:24;;;;;;;5.57;2.58;;;;;;;22.03;60.36;99274.75;5025123;28;20020;-94
2022/06/26 03:36:49;;;;;;;7.20;3.15;;;;;;;21.90;60.53;99261.06;5025163;28;20025;-90
2022/06/26 03:39:15;;;;;;;5.50;3.10;;;;;;;21.91;60.27;99256.38;5024810;28;20025;-94
2022/06/26 03:41:40;;;;;;;6.75;3.33;;;;;;;21.94;59.67;99247.47;5024233;28;20060;-93
2022/06/26 03:44:06;;;;;;;9.50;2.78;;;;;;;22.14;59.93;99264.88;5024502;28;20024;-93
2022/06/26 03:46:32;;;;;;;9.02;2.90;;;;;;;22.08;59.61;99244.34;5024344;28;20025;-94
2022/06/26 03:48:58;;;;;;;19.33;3.70;;;;;;;22.07;60.04;99259.19;5040609;28;20052;-94
2022/06/26 03:51:23;;;;;;;6.68;3.10;;;;;;;22.20;59.89;99264.31;5024226;28;20505;-91
2022/06/26 03:53:49;;;;;;;7.72;2.88;;;;;;;22.25;60.12;99266.03;5024230;28;20019;-94
2022/06/26 03:56:14;;;;;;;9.65;3.40;;;;;;;22.21;59.89;99276.06;5040768;28;20020;-93
2022/06/26 03:58:40;;;;;;;9.82;3.13;;;;;;;22.16;59.70;99270.81;5024702;28;20024;-93
2022/06/26 04:01:05;;;;;;;7.35;3.03;;;;;;;22.40;58.53;99269.94;5040679;28;20119;-91
2022/06/26 04:03:31;;;;;;;5.57;2.83;;;;;;;22.29;58.90;99264.19;5040687;28;20025;-94
2022/06/26 04:05:56;;;;;;;7.32;2.58;;;;;;;22.25;58.80;99259.75;5024143;28;20052;-91
2022/06/26 04:08:22;;;;;;;10.15;3.20;;;;;;;22.35;58.56;99261.97;5041160;28;20024;-92
2022/06/26 04:10:47;;;;;;;8.40;3.70;;;;;;;22.41;58.26;99266.03;5024021;28;20020;-93
2022/06/26 04:13:13;;;;;;;8.32;3.00;;;;;;;22.32;58.42;99252.50;5024171;28;20080;-94
2022/06/26 04:15:39;;;;;;;7.68;3.17;;;;;;;22.49;59.04;99283.50;5024487;28;20025;-93
2022/06/26 04:18:05;;;;;;;8.18;2.70;;;;;;;22.42;59.52;99267.66;5040345;28;20025;-93
2022/06/26 04:20:31;;;;;;;4.93;2.50;;;;;;;22.33;58.47;99265.06;5023859;28;20020;-94
2022/06/26 04:23:02;;;;;;;6.13;2.50;;;;;;;22.34;58.59;99287.81;5024411;28;20024;-93
2022/06/26 04:25:28;;;;;;;11.23;2.77;;;;;;;22.31;59.29;99283.03;5040457;28;20035;-92
2022/06/26 04:27:54;;;;;;;7.50;2.70;;;;;;;22.34;59.19;99310.53;5024396;28;20005;-92
2022/06/26 04:30:19;;;;;;;4.93;2.90;;;;;;;22.34;59.44;99315.25;5023648;28;20093;-91
2022/06/26 04:32:45;;;;;;;8.95;3.00;;;;;;;22.35;59.02;99294.88;5023378;28;20024;-94
2022/06/26 04:35:10;;;;;;;7.63;2.65;;;;;;;22.45;57.89;99288.88;5023731;28;20494;-91
2022/06/26 04:37:37;;;;;;;5.88;2.70;;;;;;;22.61;58.15;99297.16;5039974;28;20123;-91
2022/06/26 04:40:03;;;;;;;5.07;2.70;;;;;;;22.47;59.27;99286.59;5023707;28;20028;-92
2022/06/26 04:42:29;;;;;;;9.75;3.35;;;;;;;22.51;59.70;99305.91;5023386;28;20050;-92
2022/06/26 04:44:54;;;;;;;10.95;3.20;;;;;;;22.65;58.91;99314.53;5023774;28;20024;-91
2022/06/26 04:47:20;;;;;;;9.60;3.55;;;;;;;22.65;58.46;99292.56;5023486;28;20513;-91
2022/06/26 04:49:45;;;;;;;8.30;2.83;;;;;;;22.83;58.55;99297.72;5019997;28;20408;-91
2022/06/26 04:52:11;;;;;;;5.90;2.60;;;;;;;22.81;57.77;99284.38;5019742;28;20097;-90
2022/06/26 04:54:36;;;;;;;8.95;2.78;;;;;;;22.91;57.39;99305.00;5019926;28;20032;-92
2022/06/26 04:57:02;;;;;;;6.97;2.60;;;;;;;22.73;58.02;99297.09;5020262;28;20052;-92
2022/06/26 04:59:27;;;;;;;9.07;3.17;;;;;;;22.83;58.92;99305.97;5019589;28;20025;-92
2022/06/26 05:01:53;;;;;;;6.03;2.55;;;;;;;22.76;58.24;99295.59;5020342;28;20021;-91
2022/06/26 05:04:18;;;;;;;6.40;3.08;;;;;;;22.79;57.92;99292.16;5019726;28;20017;-93
2022/06/26 05:06:44;;;;;;;8.52;2.72;;;;;;;22.84;57.54;99299.34;5019286;28;20021;-91
2022/06/26 05:09:09;;;;;;;5.07;2.53;;;;;;;22.86;57.29;99297.03;5019224;28;20017;-94
2022/06/26 05:11:35;;;;;;;6.15;2.58;;;;;;;22.92;57.24;99293.66;5019751;28;20029;-92
2022/06/26 05:14:00;;;;;;;6.38;2.72;;;;;;;22.98;57.96;99299.72;5020410;28;20028;-91
2022/06/26 05:16:26;;;;;;;5.80;2.53;;;;;;;23.14;57.16;99317.03;5019647;28;20024;-90
2022/06/26 05:18:51;;;;;;;10.02;2.72;;;;;;;23.08;57.28;99307.44;5019543;28;20029;-91
2022/06/26 05:21:17;;;;;;;5.40;2.92;;;;;;;23.09;57.33;99295.28;5019287;28;20092;-91
2022/06/26 05:23:43;;;;;;;6.22;2.40;;;;;;;23.25;56.47;99311.00;5019316;28;20017;-93
2022/06/26 05:26:08;;;;;;;5.75;2.40;;;;;;;23.27;56.32;99305.94;5020043;28;20032;-91
2022/06/26 05:28:34;;;;;;;8.95;2.65;;;;;;;23.31;56.39;99304.88;5019861;28;20083;-92
2022/06/26 05:30:59;;;;;;;7.28;2.40;;;;;;;23.43;55.91;99306.72;5019168;28;20497;-92
2022/06/26 05:33:25;;;;;;;9.60;2.75;;;;;;;23.59;56.06;99312.19;5035543;28;20391;-93
2022/06/26 05:35:50;;;;;;;6.93;2.53;;;;;;;23.65;55.61;99307.22;5019111;28;20487;-94
2022/06/26 05:38:16;;;;;;;5.50;2.55;;;;;;;23.88;55.08;99319.16;5036012;28;20025;-92
2022/06/26 05:40:41;;;;;;;4.97;1.98;;;;;;;23.99;54.83;99316.66;5019103;28;20483;-92
2022/06/26 05:43:07;;;;;;;5.40;2.28;;;;;;;24.26;54.18;99330.56;5018928;28;20028;-92
2022/06/26 05:45:32;;;;;;;4.93;2.22;;;;;;;24.32;53.05;99340.94;5018516;28;20021;-92
2022/06/26 05:47:58;;;;;;;4.93;2.15;;;;;;;24.39;53.10;99340.28;5019096;28;20557;-92
2022/06/26 05:50:23;;;;;;;6.80;1.90;;;;;;;24.32;53.34;99338.19;5018836;28;20056;-91
2022/06/26 05:52:49;;;;;;;4.80;2.00;;;;;;;24.27;53.71;99319.22;5019677;28;20025;-91
2022/06/26 05:55:14;;;;;;;5.15;2.00;;;;;;;24.25;52.49;99327.03;5018976;28;20023;-92
2022/06/26 05:57:40;;;;;;;6.25;2.42;;;;;;;24.42;51.66;99345.06;5019177;28;20067;-94
2022/06/26 06:00:06;;;;;;;3.50;2.08;;;;;;;24.57;51.59;99346.16;5035138;28;20028;-91
2022/06/26 06:02:32;;;;;;;4.63;1.80;;;;;;;24.51;51.73;99331.09;5019910;28;20029;-92
2022/06/26 06:04:58;;;;;;;4.40;2.13;;;;;;;24.30;52.64;99334.19;5019245;28;20032;-92
2022/06/26 06:07:23;;;;;;;5.43;2.17;;;;;;;24.38;52.82;99323.00;5019218;28;20025;-94
2022/06/26 06:09:50;;;;;;;4.60;2.00;;;;;;;24.30;52.75;99329.50;5020964;28;20021;-92
2022/06/26 06:12:15;;;;;;;5.07;2.13;;;;;;;24.41;52.45;99337.97;5023479;28;20028;-91
2022/06/26 06:14:41;;;;;;;9.32;2.70;;;;;;;24.56;52.13;99341.84;5022645;28;20491;-91
2022/06/26 06:19:50;;;;;;;4.18;2.17;;;;;;;24.54;51.66;99344.94;5042292;28;20120;-92
2022/06/26 06:22:16;;;;;;;4.30;2.05;;;;;;;24.57;52.25;99359.94;5022802;28;20478;-91
2022/06/26 06:24:41;;;;;;;4.75;2.30;;;;;;;24.46;52.53;99350.63;5023072;28;20017;-91
2022/06/26 06:27:07;;;;;;;9.05;2.55;;;;;;;24.52;52.88;99360.22;5022888;28;20045;-92
2022/06/26 06:29:32;;;;;;;5.57;2.35;;;;;;;24.53;52.93;99354.38;5023937;28;20029;-93
2022/06/26 06:32:00;;;;;;;4.20;2.30;;;;;;;24.52;52.87;99332.72;5024592;28;20036;-93
2022/06/26 06:34:26;;;;;;;7.25;2.50;;;;;;;24.56;52.18;99339.06;5039267;28;20036;-92
2022/06/26 06:36:54;;;;;;;7.43;2.60;;;;;;;24.37;52.47;99337.88;5038914;28;20033;-93
2022/06/26 06:39:21;;;;;;;10.82;3.53;;;;;;;24.27;54.02;99346.72;5023363;28;20029;-92
2022/06/26 06:41:47;;;;;;;7.85;2.80;;;;;;;24.39;53.28;99349.34;5023194;28;20036;-91
2022/06/26 06:44:12;;;;;;;5.47;2.95;;;;;;;24.32;53.41;99351.13;5039303;28;20021;-93
2022/06/26 06:46:38;;;;;;;5.82;3.00;;;;;;;24.33;53.60;99363.75;5022759;28;20482;-91
2022/06/26 06:49:04;;;;;;;4.32;2.72;;;;;;;24.29;53.46;99363.66;5022833;28;20060;-91
2022/06/26 06:51:29;;;;;;;4.70;2.88;;;;;;;24.21;53.54;99354.47;5022974;28;20112;-92
2022/06/26 06:53:55;;;;;;;7.80;2.90;;;;;;;24.05;54.18;99342.72;5022479;28;20051;-92
2022/06/26 06:56:20;;;;;;;7.85;2.97;;;;;;;24.20;53.95;99363.09;5023115;28;20498;-92
2022/06/26 06:58:46;;;;;;;6.63;2.70;;;;;;;24.09;54.39;99353.78;5022579;28;20052;-93
2022/06/26 07:01:11;;;;;;;7.93;3.00;;;;;;;24.10;53.91;99356.19;5023445;28;20033;-92
2022/06/26 07:03:37;;;;;;;9.68;3.00;;;;;;;24.20;54.43;99363.09;5022181;28;20029;-91
2022/06/26 07:06:02;;;;;;;6.07;2.72;;;;;;;24.23;54.35;99361.56;5021981;28;20467;-91
2022/06/26 07:08:28;;;;;;;7.97;2.97;;;;;;;24.25;53.57;99354.53;5021901;28;20029;-92
2022/06/26 07:10:54;;;;;;;7.93;3.20;;;;;;;24.31;54.61;99358.59;5023092;28;20391;-92
2022/06/26 07:13:19;;;;;;;7.85;3.47;;;;;;;24.47;54.09;99364.03;5021651;28;20037;-91
2022/06/26 07:15:48;;;;;;;9.65;4.40;;;;;;;24.38;54.15;99339.50;5022676;28;20044;-93
2022/06/26 07:18:16;;;;;;;10.80;3.95;;;;;;;24.61;54.13;99344.28;5038625;28;20041;-94
2022/06/26 07:20:42;;;;;;;9.50;3.22;;;;;;;24.71;52.95;99349.19;5021482;28;20098;-92
2022/06/26 07:23:16;;;;;;;6.47;3.05;;;;;;;24.87;52.31;99360.13;5021780;28;20469;-92
2022/06/26 07:25:42;;;;;;;6.60;2.58;;;;;;;24.83;51.98;99363.97;5024267;28;20036;-93
2022/06/26 07:28:08;;;;;;;6.95;3.17;;;;;;;24.77;52.59;99356.00;5022615;28;20471;-92
2022/06/26 07:30:34;;;;;;;8.40;3.50;;;;;;;24.71;53.27;99340.16;5038498;28;20025;-92
2022/06/26 07:34:12;;;;;;;11.55;3.40;;;;;;;24.87;52.52;99346.34;5022030;28;20491;-92
2022/06/26 07:35:51;;;;;;;4.95;2.78;;;;;;;24.88;52.53;99361.75;5041702;28;20483;-93
2022/06/26 07:38:26;;;;;;;6.97;2.67;;;;;;;24.75;52.83;99352.81;5021770;28;20037;-92
2022/06/26 07:40:52;;;;;;;6.70;2.90;;;;;;;24.76;52.67;99362.69;5025129;28;20029;-92
2022/06/26 07:43:17;;;;;;;5.20;2.90;;;;;;;24.68;53.20;99385.72;5023263;28;20036;-92
2022/06/26 07:45:43;;;;;;;5.45;2.92;;;;;;;24.73;53.50;99379.91;5022679;28;20388;-92
2022/06/26 07:48:08;;;;;;;5.00;2.63;;;;;;;24.80;53.29;99382.81;5023587;28;20033;-95
2022/06/26 07:50:34;;;;;;;6.47;3.50;;;;;;;24.68;53.22;99380.22;5021502;28;20103;-95
2022/06/26 07:52:59;;;;;;;9.57;3.60;;;;;;;24.62;53.13;99375.38;5021202;28;20175;-95
2022/06/26 07:55:25;;;;;;;6.07;3.10;;;;;;;24.63;53.17;99391.50;5021946;28;20502;-95
2022/06/26 07:57:50;;;;;;;7.53;3.20;;;;;;;24.67;53.03;99378.63;5023210;28;20087;-95
2022/06/26 08:00:16;;;;;;;10.02;3.60;;;;;;;24.69;54.02;99389.28;5022179;28;20091;-95
2022/06/26 08:02:41;;;;;;;4.75;3.20;;;;;;;24.89;53.41;99396.38;5021281;28;20029;-94
2022/06/26 08:05:07;;;;;;;6.60;2.85;;;;;;;25.11;52.88;99407.78;5021813;28;20037;-94
2022/06/26 08:07:33;;;;;;;4.18;2.65;;;;;;;25.04;52.54;99380.09;5021784;28;20029;-94
2022/06/26 08:09:58;;;;;;;6.18;2.80;;;;;;;24.91;53.01;99377.53;5021161;28;20028;-95
2022/06/26 08:12:24;;;;;;;5.53;2.80;;;;;;;25.08;52.88;99379.00;5021406;28;20032;-95
2022/06/26 08:14:50;;;;;;;9.27;2.90;;;;;;;25.23;52.42;99390.31;5020676;28;20029;-95
2022/06/26 08:17:15;;;;;;;8.93;2.40;;;;;;;25.15;51.52;99387.41;5020975;28;20029;-94
2022/06/26 08:19:41;;;;;;;7.60;2.78;;;;;;;25.25;50.69;99383.25;5021236;28;20483;-95
2022/06/26 08:22:06;;;;;;;8.43;2.65;;;;;;;25.58;50.69;99409.44;5021222;28;20088;-93
2022/06/26 08:24:32;;;;;;;10.48;2.90;;;;;;;25.55;50.79;99390.88;5021497;28;20493;-94
2022/06/26 08:26:59;;;;;;;5.07;2.45;;;;;;;25.76;48.17;99391.22;5021054;28;20021;-95
2022/06/26 08:29:24;;;;;;;8.27;2.60;;;;;;;26.10;47.72;99393.31;5021043;28;20119;-94
2022/06/26 08:31:50;;;;;;;4.70;2.67;;;;;;;26.16;48.63;99389.06;5020331;28;20407;-95
2022/06/26 08:34:15;;;;;;;7.13;2.70;;;;;;;26.16;48.34;99392.59;5020667;28;20035;-96
2022/06/26 08:36:41;;;;;;;7.50;2.58;;;;;;;26.19;48.46;99397.41;5020824;28;20032;-96
2022/06/26 08:39:07;;;;;;;3.47;2.40;;;;;;;26.11;49.00;99376.38;5021226;28;20032;-96
2022/06/26 08:41:38;;;;;;;9.73;2.80;;;;;;;26.09;48.93;99373.19;5021213;28;20036;-95
2022/06/26 08:44:03;;;;;;;5.85;2.80;;;;;;;26.04;49.35;99394.78;5021079;28;20035;-95
2022/06/26 08:46:29;;;;;;;5.75;2.97;;;;;;;26.35;48.43;99394.44;5020788;28;20028;-95
2022/06/26 08:48:56;;;;;;;6.10;3.15;;;;;;;26.15;49.14;99381.97;5020433;28;20053;-96
2022/06/26 08:51:22;;;;;;;6.15;3.17;;;;;;;26.14;48.73;99392.19;5020313;28;20216;-93
2022/06/26 08:53:47;;;;;;;5.25;3.15;;;;;;;26.12;48.65;99385.44;5020195;28;20028;-95
2022/06/26 08:56:13;;;;;;;4.38;2.70;;;;;;;25.90;49.83;99384.34;5020536;28;20475;-95
2022/06/26 08:58:38;;;;;;;7.40;3.22;;;;;;;26.19;49.50;99402.91;5020401;28;20025;-96
2022/06/26 09:01:04;;;;;;;4.75;2.63;;;;;;;26.19;48.70;99411.19;5020219;28;20033;-95
2022/06/26 09:03:32;;;;;;;6.70;3.00;;;;;;;26.06;48.95;99393.25;5019734;28;20020;-96
2022/06/26 09:05:57;;;;;;;6.53;3.05;;;;;;;26.13;48.71;99409.94;5019805;28;20025;-94
2022/06/26 09:08:25;;;;;;;8.63;3.00;;;;;;;25.83;49.01;99396.03;5020621;28;20035;-95
2022/06/26 09:10:50;;;;;;;10.80;3.17;;;;;;;25.88;50.09;99408.72;5020747;28;20041;-95
2022/06/26 09:13:16;;;;;;;7.97;3.20;;;;;;;25.67;50.40;99396.19;5019678;28;20055;-95
2022/06/26 09:15:42;;;;;;;9.32;3.22;;;;;;;25.70;50.36;99417.50;5020228;28;20047;-94
2022/06/26 09:18:11;;;;;;;8.75;3.38;;;;;;;25.61;50.79;99401.22;5024414;28;20123;-94
2022/06/26 09:20:54;;;;;;;8.40;3.17;;;;;;;25.63;50.90;99409.13;5023715;28;20036;-94
2022/06/26 09:23:19;;;;;;;6.20;3.20;;;;;;;25.75;50.17;99428.25;5021882;28;20023;-96
2022/06/26 09:25:48;;;;;;;6.57;3.30;;;;;;;26.08;49.07;99439.78;5020499;28;20029;-95
2022/06/26 09:28:19;;;;;;;6.53;2.95;;;;;;;26.13;49.27;99439.50;5020878;28;20123;-96
2022/06/26 09:31:04;;;;;;;8.85;3.30;;;;;;;26.00;49.37;99416.81;5041232;28;20103;-96
2022/06/26 09:33:31;;;;;;;6.07;3.05;;;;;;;26.23;50.14;99430.56;5020729;28;20056;-95
2022/06/26 09:35:57;;;;;;;6.57;3.05;;;;;;;26.15;49.05;99415.06;5020415;28;20115;-96
2022/06/26 09:38:30;;;;;;;5.88;3.08;;;;;;;26.49;49.19;99426.97;5028044;28;20028;-95
2022/06/26 09:41:01;;;;;;;10.90;4.05;;;;;;;26.58;48.83;99433.06;5020053;28;20025;-95
2022/06/26 09:43:37;;;;;;;13.95;3.22;;;;;;;26.64;48.35;99421.66;5018749;28;20036;-96
2022/06/26 09:46:04;;;;;;;7.57;3.20;;;;;;;26.68;48.03;99428.81;5020787;28;20041;-95
2022/06/26 09:48:32;;;;;;;6.57;3.15;;;;;;;26.81;47.49;99424.66;5021226;28;20440;-96
2022/06/26 09:50:58;;;;;;;10.32;3.20;;;;;;;26.78;47.70;99425.38;5022923;28;20025;-95
2022/06/26 09:53:24;;;;;;;10.88;3.90;;;;;;;26.75;48.19;99437.19;5023670;28;20127;-96
2022/06/26 09:55:53;;;;;;;7.05;3.17;;;;;;;26.64;48.85;99436.25;5040852;28;20054;-95
2022/06/26 09:58:19;;;;;;;10.80;3.30;;;;;;;26.41;48.31;99439.88;5023395;28;20055;-96
2022/06/26 10:06:25;;;;;;;5.82;3.05;;;;;;;26.33;48.56;99427.13;5022961;28;20032;-95
2022/06/26 10:06:25;;;;;;;8.35;3.20;;;;;;;26.09;48.71;99422.88;5044784;28;20097;-94
2022/06/26 10:08:51;;;;;;;4.57;2.75;;;;;;;26.10;49.25;99431.94;5023228;28;20024;-94
2022/06/26 10:11:17;;;;;;;6.35;2.92;;;;;;;26.19;48.65;99436.03;5022815;28;20064;-93
2022/06/26 10:13:42;;;;;;;5.30;3.20;;;;;;;26.15;48.67;99420.59;5023191;28;20025;-96
2022/06/26 10:16:08;;;;;;;21.20;6.95;;;;;;;26.28;49.52;99438.53;5021998;28;20032;-96
2022/06/26 10:19:05;;;;;;;10.88;2.92;;;;;;;26.20;48.50;99432.09;5056282;28;20028;-96
2022/06/26 10:21:40;;;;;;;4.80;2.78;;;;;;;26.11;48.01;99417.00;5026697;28;20028;-95
2022/06/26 10:24:06;;;;;;;8.90;3.28;;;;;;;26.05;48.36;99421.25;5023536;28;20025;-96
2022/06/26 10:26:32;;;;;;;10.93;3.65;;;;;;;26.10;48.88;99423.66;5023171;28;20048;-96
2022/06/26 10:29:01;;;;;;;7.88;3.30;;;;;;;26.16;47.69;99439.53;5023096;28;20116;-96
2022/06/26 10:31:49;;;;;;;8.35;3.20;;;;;;;25.86;48.39;99408.28;5040433;28;20034;-95
2022/06/26 10:34:22;;;;;;;8.05;2.97;;;;;;;25.88;48.42;99417.81;5024413;28;20021;-95
2022/06/26 10:37:10;;;;;;;7.60;2.72;;;;;;;25.76;49.37;99407.75;5023823;28;20020;-95
2022/06/26 10:39:45;;;;;;;8.10;3.05;;;;;;;25.81;49.60;99418.47;5024924;28;20025;-95
2022/06/26 10:45:12;;;;;;;;;;;;;;;25.90;49.18;99420.19;5060324;28;20028;-96
2022/06/26 10:47:46;;;;;;;5.95;2.88;;;;;;;25.77;48.91;99414.88;5038799;28;19948;-95
2022/06/26 10:50:25;;;;;;;7.00;2.60;;;;;;;25.67;49.65;99406.41;5019623;28;20049;-96
2022/06/26 10:52:51;;;;;;;6.85;2.85;;;;;;;25.53;50.03;99407.78;5020223;28;20044;-96
2022/06/26 10:55:16;;;;;;;5.10;2.65;;;;;;;25.60;49.81;99405.13;5018980;28;20017;-95
2022/06/26 10:57:42;;;;;;;6.85;2.95;;;;;;;25.56;49.25;99406.25;5022330;28;20032;-96
2022/06/26 11:00:11;;;;;;;10.88;3.03;;;;;;;25.46;50.34;99412.38;5023254;28;20083;-95
2022/06/26 11:02:41;;;;;;;7.50;3.05;;;;;;;25.54;50.03;99416.84;5023042;28;20024;-96
2022/06/26 11:05:08;;;;;;;6.65;3.40;;;;;;;25.48;50.40;99390.75;5023162;28;20036;-95
2022/06/26 11:07:43;;;;;;;10.32;3.05;;;;;;;25.50;50.10;99404.97;5022623;28;20032;-94
2022/06/26 11:10:17;;;;;;;5.60;3.25;;;;;;;25.58;49.60;99409.44;5022381;28;20068;-95
2022/06/26 11:12:43;;;;;;;7.38;2.60;;;;;;;25.51;49.74;99401.06;5022707;28;20048;-95
2022/06/26 11:15:27;;;;;;;6.65;2.80;;;;;;;25.59;49.75;99398.03;5021880;28;20052;-95
2022/06/26 11:17:54;;;;;;;6.65;3.00;;;;;;;25.59;49.60;99377.94;5021907;28;20109;-95
2022/06/26 11:23:30;;;;;;;8.00;3.50;;;;;;;25.84;48.66;99392.13;5041369;28;20059;-95
2022/06/26 11:26:04;;;;;;;6.05;2.95;;;;;;;25.49;50.00;99368.31;5041017;28;20040;-95
2022/06/26 11:28:35;;;;;;;10.68;3.03;;;;;;;25.81;47.92;99390.09;5038601;28;20024;-94
2022/06/26 11:31:02;;;;;;;4.70;2.90;;;;;;;25.88;48.72;99386.63;5039916;28;20116;-94
2022/06/26 11:33:29;;;;;;;3.97;2.90;;;;;;;25.98;48.56;99381.34;5039460;28;20396;-95
2022/06/26 11:35:55;;;;;;;8.30;2.75;;;;;;;26.04;48.08;99387.31;5022734;28;20025;-95
2022/06/26 11:38:21;;;;;;;7.03;2.60;;;;;;;26.10;48.47;99388.56;5022584;28;20021;-94
2022/06/26 11:40:47;;;;;;;5.70;2.47;;;;;;;26.14;47.13;99392.19;5022022;28;20407;-95
2022/06/26 11:43:13;;;;;;;6.32;2.58;;;;;;;26.15;47.90;99393.00;5021568;28;20050;-94